createdAt,value
2017-11-08T00:01:54.735Z,96.20
2017-11-08T00:04:22.228Z,96.20
2017-11-08T00:06:49.701Z,96.20
2017-11-08T00:09:17.950Z,96.20
2017-11-08T00:11:45.433Z,96.20
2017-11-08T00:14:13.697Z,96.20
2017-11-08T00:16:41.952Z,96.20
2017-11-08T00:19:09.439Z,96.20
2017-11-08T00:21:45.281Z,96.20
2017-11-08T00:24:12.781Z,96.20
2017-11-08T00:26:40.304Z,96.60
2017-11-08T00:29:08.530Z,96.30
2017-11-08T00:31:36.035Z,96.30
2017-11-08T00:34:03.510Z,96.20
2017-11-08T00:36:31.012Z,96.30
2017-11-08T00:38:58.623Z,96.30
2017-11-08T00:41:26.196Z,96.30
2017-11-08T00:43:53.683Z,96.30
2017-11-08T00:46:21.176Z,96.30
2017-11-08T00:48:49.417Z,96.30
2017-11-08T00:51:16.903Z,96.30
2017-11-08T00:53:45.230Z,96.30
2017-11-08T00:56:12.874Z,96.30
2017-11-08T00:58:40.530Z,96.30
2017-11-08T01:01:08.061Z,96.30
2017-11-08T01:03:35.551Z,96.30
2017-11-08T01:06:03.027Z,96.20
2017-11-08T01:08:30.527Z,96.30
2017-11-08T01:10:58.010Z,96.20
2017-11-08T01:13:25.645Z,96.20
2017-11-08T01:15:53.195Z,96.20
2017-11-08T01:18:20.664Z,96.20
2017-11-08T01:20:48.144Z,96.20
2017-11-08T01:23:15.642Z,96.30
2017-11-08T01:25:43.344Z,96.20
2017-11-08T01:28:10.947Z,96.20
2017-11-08T01:30:38.431Z,96.20
2017-11-08T01:33:05.911Z,96.20
2017-11-08T01:35:33.398Z,96.20
2017-11-08T01:38:01.112Z,96.30
2017-11-08T01:40:28.728Z,96.20
2017-11-08T01:42:56.702Z,96.20
2017-11-08T01:45:26.984Z,96.20
2017-11-08T01:48:00.328Z,96.20
2017-11-08T01:50:27.814Z,96.20
2017-11-08T01:52:55.310Z,96.20
2017-11-08T01:55:23.553Z,96.20
2017-11-08T01:57:51.038Z,96.20
2017-11-08T02:00:18.863Z,96.20
2017-11-08T02:02:46.636Z,96.20
2017-11-08T02:05:14.313Z,96.20
2017-11-08T02:07:41.806Z,96.20
2017-11-08T02:10:09.292Z,96.20
2017-11-08T02:12:36.782Z,96.20
2017-11-08T02:15:04.269Z,96.20
2017-11-08T02:17:31.766Z,96.20
2017-11-08T02:19:59.355Z,96.20
2017-11-08T02:22:26.889Z,96.20
2017-11-08T02:24:56.175Z,96.20
2017-11-08T02:27:29.354Z,96.20
2017-11-08T02:29:56.839Z,96.20
2017-11-08T02:32:24.331Z,96.20
2017-11-08T02:34:52.708Z,96.20
2017-11-08T02:37:21.152Z,96.20
2017-11-08T02:39:48.718Z,96.20
2017-11-08T02:42:16.204Z,96.20
2017-11-08T02:44:43.683Z,96.20
2017-11-08T02:47:11.172Z,96.20
2017-11-08T02:49:38.655Z,96.20
2017-11-08T02:52:06.175Z,96.20
2017-11-08T02:54:35.494Z,96.20
2017-11-08T02:57:03.005Z,96.20
2017-11-08T02:59:31.318Z,96.20
2017-11-08T03:01:58.802Z,96.20
2017-11-08T03:04:26.304Z,96.20
2017-11-08T03:06:53.787Z,96.20
2017-11-08T03:09:21.407Z,96.20
2017-11-08T03:11:49.726Z,96.20
2017-11-08T03:14:18.215Z,96.20
2017-11-08T03:16:46.194Z,96.20
2017-11-08T03:19:13.803Z,96.20
2017-11-08T03:21:41.282Z,96.20
2017-11-08T03:24:08.764Z,96.20
2017-11-08T03:26:36.255Z,96.20
2017-11-08T03:29:04.513Z,96.20
2017-11-08T03:31:32.103Z,96.20
2017-11-08T03:34:00.363Z,96.20
2017-11-08T03:36:28.841Z,96.20
2017-11-08T03:38:56.336Z,96.20
2017-11-08T03:41:23.847Z,96.20
2017-11-08T03:43:51.321Z,96.20
2017-11-08T03:46:19.566Z,96.20
2017-11-08T03:48:47.051Z,96.20
2017-11-08T03:51:15.302Z,96.20
2017-11-08T03:53:42.959Z,96.20
2017-11-08T03:56:10.458Z,96.20
2017-11-08T03:58:37.938Z,96.20
2017-11-08T04:01:05.414Z,96.20
2017-11-08T04:03:32.903Z,96.20
2017-11-08T04:06:00.678Z,96.20
2017-11-08T04:08:29.076Z,96.20
2017-11-08T04:10:56.665Z,96.20
2017-11-08T04:13:24.223Z,96.20
2017-11-08T04:15:52.528Z,96.20
2017-11-08T04:18:20.007Z,96.20
2017-11-08T04:20:48.258Z,96.20
2017-11-08T04:23:15.750Z,96.20
2017-11-08T04:25:43.986Z,96.20
2017-11-08T04:28:11.505Z,96.20
2017-11-08T04:30:39.128Z,96.20
2017-11-08T04:33:07.515Z,96.20
2017-11-08T04:35:35.829Z,96.20
2017-11-08T04:38:03.306Z,96.20
2017-11-08T04:40:30.800Z,96.20
2017-11-08T04:42:59.054Z,96.20
2017-11-08T04:45:26.546Z,96.20
2017-11-08T04:47:54.058Z,96.20
2017-11-08T04:50:21.618Z,96.20
2017-11-08T04:52:49.182Z,96.20
2017-11-08T04:55:16.656Z,96.30
2017-11-08T04:57:44.906Z,96.30
2017-11-08T05:00:12.379Z,96.30
2017-11-08T05:02:39.910Z,96.30
2017-11-08T05:05:07.497Z,96.30
2017-11-08T05:07:36.413Z,96.30
2017-11-08T05:10:05.032Z,96.30
2017-11-08T05:12:32.635Z,96.30
2017-11-08T05:15:00.186Z,96.30
2017-11-08T05:17:27.663Z,96.30
2017-11-08T05:19:55.919Z,96.30
2017-11-08T05:22:23.414Z,96.30
2017-11-08T05:24:51.027Z,96.30
2017-11-08T05:27:18.630Z,96.30
2017-11-08T05:29:47.187Z,96.80
2017-11-08T05:32:15.464Z,97.00
2017-11-08T05:34:44.099Z,96.70
2017-11-08T05:37:11.705Z,96.70
2017-11-08T05:39:40.229Z,96.80
2017-11-08T05:42:07.725Z,96.80
2017-11-08T05:44:35.211Z,96.70
2017-11-08T05:47:03.460Z,96.60
2017-11-08T05:49:30.938Z,96.70
2017-11-08T05:51:59.236Z,96.70
2017-11-08T05:54:27.507Z,96.70
2017-11-08T05:56:55.086Z,96.60
2017-11-08T05:59:22.588Z,96.70
2017-11-08T06:01:51.460Z,96.70
2017-11-08T06:04:18.972Z,96.70
2017-11-08T06:06:46.460Z,96.60
2017-11-08T06:09:14.188Z,96.70
2017-11-08T06:11:42.651Z,96.60
2017-11-08T06:14:11.881Z,96.90
2017-11-08T06:16:39.411Z,96.60
2017-11-08T06:19:07.948Z,96.60
2017-11-08T06:21:35.781Z,96.60
2017-11-08T06:24:04.180Z,96.60
2017-11-08T06:26:31.746Z,96.60
2017-11-08T06:28:59.214Z,96.60
2017-11-08T06:31:26.692Z,96.60
2017-11-08T06:33:54.173Z,96.60
2017-11-08T06:36:22.431Z,96.60
2017-11-08T06:38:49.956Z,96.60
2017-11-08T06:41:17.568Z,96.60
2017-11-08T06:43:45.849Z,96.60
2017-11-08T06:46:13.334Z,96.60
2017-11-08T06:48:40.843Z,96.60
2017-11-08T06:51:14.907Z,96.60
2017-11-08T06:53:42.413Z,96.70
2017-11-08T06:56:10.675Z,96.70
2017-11-08T06:58:38.202Z,96.70
2017-11-08T07:01:05.693Z,96.70
2017-11-08T07:03:33.229Z,96.70
2017-11-08T07:06:00.719Z,96.70
2017-11-08T07:08:30.981Z,96.70
2017-11-08T07:10:58.482Z,96.70
2017-11-08T07:13:25.958Z,96.70
2017-11-08T07:15:54.215Z,96.70
2017-11-08T07:18:21.690Z,96.70
2017-11-08T07:20:50.054Z,96.70
2017-11-08T07:23:17.612Z,96.70
2017-11-08T07:25:45.094Z,96.70
2017-11-08T07:28:15.153Z,96.80
2017-11-08T07:30:42.642Z,96.80
2017-11-08T07:33:10.140Z,96.70
2017-11-08T07:35:37.615Z,96.80
2017-11-08T07:38:05.195Z,96.80
2017-11-08T07:40:33.683Z,96.80
2017-11-08T07:43:01.350Z,96.80
2017-11-08T07:45:28.876Z,96.80
2017-11-08T07:47:56.363Z,96.80
2017-11-08T07:50:23.874Z,96.80
2017-11-08T07:52:51.354Z,96.80
2017-11-08T07:55:22.605Z,96.80
2017-11-08T07:57:50.100Z,96.80
2017-11-08T08:00:18.637Z,97.20
2017-11-08T08:02:46.106Z,96.80
2017-11-08T08:05:13.604Z,96.80
2017-11-08T08:07:41.859Z,96.90
2017-11-08T08:10:09.437Z,96.90
2017-11-08T08:12:36.965Z,96.80
2017-11-08T08:15:04.430Z,96.80
2017-11-08T08:17:31.919Z,96.90
2017-11-08T08:20:00.171Z,96.90
2017-11-08T08:22:27.750Z,96.90
2017-11-08T08:24:58.865Z,96.90
2017-11-08T08:27:26.338Z,96.90
2017-11-08T08:29:54.590Z,96.90
2017-11-08T08:32:22.090Z,96.90
2017-11-08T08:34:49.747Z,96.90
2017-11-08T08:37:17.262Z,96.90
2017-11-08T08:39:44.749Z,96.90
2017-11-08T08:42:12.997Z,96.90
2017-11-08T08:44:40.480Z,96.90
2017-11-08T08:47:08.735Z,97.20
2017-11-08T08:49:36.327Z,97.00
2017-11-08T08:52:04.831Z,97.00
2017-11-08T08:54:32.455Z,97.00
2017-11-08T08:56:59.982Z,97.00
2017-11-08T08:59:27.457Z,97.00
2017-11-08T09:01:55.691Z,97.00
2017-11-08T09:04:23.166Z,97.00
2017-11-08T09:06:50.648Z,97.00
2017-11-08T09:09:18.916Z,97.00
2017-11-08T09:11:46.515Z,97.00
2017-11-08T09:14:14.075Z,97.00
2017-11-08T09:16:42.325Z,97.10
2017-11-08T09:19:09.807Z,97.10
2017-11-08T09:21:37.286Z,97.00
2017-11-08T09:24:05.629Z,97.00
2017-11-08T09:26:33.875Z,97.10
2017-11-08T09:29:04.214Z,97.10
2017-11-08T09:31:37.270Z,97.10
2017-11-08T09:34:04.882Z,97.10
2017-11-08T09:36:35.156Z,97.10
2017-11-08T09:39:02.845Z,97.10
2017-11-08T09:41:31.847Z,97.10
2017-11-08T09:44:00.636Z,97.10
2017-11-08T09:46:29.058Z,97.10
2017-11-08T09:48:56.601Z,97.10
2017-11-08T09:51:24.099Z,97.10
2017-11-08T09:53:51.587Z,97.10
2017-11-08T09:56:19.833Z,97.10
2017-11-08T09:58:47.331Z,97.10
2017-11-08T10:01:15.612Z,97.10
2017-11-08T10:03:43.302Z,97.10
2017-11-08T10:06:10.856Z,97.10
2017-11-08T10:08:41.266Z,97.20
2017-11-08T10:11:12.655Z,97.20
2017-11-08T10:13:40.135Z,97.20
2017-11-08T10:16:07.806Z,97.20
2017-11-08T10:18:36.092Z,97.20
2017-11-08T10:21:04.461Z,97.20
2017-11-08T10:23:32.792Z,97.50
2017-11-08T10:26:00.334Z,97.20
2017-11-08T10:28:27.801Z,97.20
2017-11-08T10:30:55.269Z,97.20
2017-11-08T10:33:22.815Z,97.20
2017-11-08T10:35:50.435Z,97.20
2017-11-08T10:38:18.089Z,97.30
2017-11-08T10:40:45.630Z,97.30
2017-11-08T10:43:13.144Z,97.10
2017-11-08T10:45:40.648Z,97.60
2017-11-08T10:48:08.131Z,97.30
2017-11-08T10:50:35.625Z,97.30
2017-11-08T10:53:03.245Z,97.30
2017-11-08T10:55:30.728Z,97.30
2017-11-08T10:57:58.217Z,97.30
2017-11-08T11:00:32.377Z,97.30
2017-11-08T11:02:59.893Z,97.30
2017-11-08T11:05:28.168Z,97.30
2017-11-08T11:07:56.576Z,97.30
2017-11-08T11:10:24.120Z,97.30
2017-11-08T11:12:51.604Z,97.30
2017-11-08T11:15:19.091Z,97.30
2017-11-08T11:17:46.578Z,97.30
2017-11-08T11:20:14.840Z,97.40
2017-11-08T11:22:42.361Z,97.70
2017-11-08T11:25:09.945Z,97.40
2017-11-08T11:27:37.469Z,97.40
2017-11-08T11:30:04.959Z,97.40
2017-11-08T11:32:32.456Z,97.40
2017-11-08T11:34:59.936Z,97.40
2017-11-08T11:37:30.304Z,97.40
2017-11-08T11:39:57.787Z,97.40
2017-11-08T11:42:26.025Z,97.70
2017-11-08T11:44:53.780Z,97.40
2017-11-08T11:47:21.363Z,97.40
2017-11-08T11:49:48.921Z,97.40
2017-11-08T11:52:16.445Z,97.40
2017-11-08T11:54:43.932Z,97.50
2017-11-08T11:57:11.437Z,97.40
2017-11-08T11:59:38.964Z,97.50
2017-11-08T12:02:07.369Z,97.40
2017-11-08T12:04:34.959Z,97.50
2017-11-08T12:07:02.455Z,97.50
2017-11-08T12:09:29.954Z,97.50
2017-11-08T12:11:57.452Z,97.50
2017-11-08T12:14:25.063Z,97.50
2017-11-08T12:16:52.657Z,97.50
2017-11-08T12:19:20.197Z,97.50
2017-11-08T12:21:47.675Z,97.50
2017-11-08T12:24:15.168Z,97.50
2017-11-08T12:26:42.693Z,97.60
2017-11-08T12:29:10.269Z,97.50
2017-11-08T12:31:38.396Z,97.50
2017-11-08T12:34:06.063Z,97.50
2017-11-08T12:36:33.619Z,97.60
2017-11-08T12:39:01.847Z,97.50
2017-11-08T12:41:29.327Z,97.60
2017-11-08T12:43:58.463Z,97.60
2017-11-08T12:46:26.726Z,98.00
2017-11-08T12:48:54.217Z,97.60
2017-11-08T12:51:21.703Z,97.60
2017-11-08T12:53:49.976Z,97.60
2017-11-08T12:56:18.230Z,98.00
2017-11-08T12:58:45.861Z,97.60
2017-11-08T13:01:13.488Z,97.60
2017-11-08T13:03:41.002Z,97.60
2017-11-08T13:06:13.344Z,97.60
2017-11-08T13:08:40.823Z,97.60
2017-11-08T13:11:13.840Z,97.60
2017-11-08T13:13:41.340Z,97.60
2017-11-08T13:16:08.829Z,97.70
2017-11-08T13:18:36.403Z,97.60
2017-11-08T13:21:03.924Z,97.70
2017-11-08T13:23:31.428Z,97.70
2017-11-08T13:25:58.909Z,97.70
2017-11-08T13:28:27.166Z,97.70
2017-11-08T13:30:54.708Z,97.70
2017-11-08T13:33:22.273Z,97.70
2017-11-08T13:35:49.890Z,97.70
2017-11-08T13:38:17.446Z,97.70
2017-11-08T13:40:44.928Z,97.70
2017-11-08T13:43:12.436Z,97.70
2017-11-08T13:45:40.685Z,97.70
2017-11-08T13:48:08.175Z,97.70
2017-11-08T13:50:35.881Z,97.70
2017-11-08T13:53:03.912Z,97.70
2017-11-08T13:55:31.777Z,97.80
2017-11-08T13:58:00.435Z,97.80
2017-11-08T14:00:28.010Z,97.80
2017-11-08T14:02:55.559Z,97.70
2017-11-08T14:05:23.804Z,97.80
2017-11-08T14:07:51.315Z,97.80
2017-11-08T14:10:19.563Z,97.80
2017-11-08T14:12:47.253Z,97.80
2017-11-08T14:15:14.840Z,97.80
2017-11-08T14:17:42.489Z,97.80
2017-11-08T14:20:10.009Z,97.80
2017-11-08T14:22:37.482Z,97.80
2017-11-08T14:25:04.983Z,98.00
2017-11-08T14:27:32.504Z,97.80
2017-11-08T14:30:01.870Z,97.80
2017-11-08T14:32:29.368Z,97.80
2017-11-08T14:34:57.051Z,97.80
2017-11-08T14:37:24.560Z,97.80
2017-11-08T14:39:52.863Z,97.80
2017-11-08T14:42:22.175Z,97.80
2017-11-08T14:44:49.741Z,97.80
2017-11-08T14:47:17.244Z,97.80
2017-11-08T14:49:44.722Z,97.80
2017-11-08T14:52:12.231Z,97.80
2017-11-08T14:54:39.923Z,97.80
2017-11-08T14:57:07.783Z,97.80
2017-11-08T14:59:35.375Z,97.80
2017-11-08T15:02:03.693Z,97.90
2017-11-08T15:04:31.220Z,97.90
2017-11-08T15:06:58.707Z,97.90
2017-11-08T15:09:26.227Z,97.90
2017-11-08T15:11:57.667Z,97.90
2017-11-08T15:14:26.698Z,97.90
2017-11-08T15:16:54.192Z,97.90
2017-11-08T15:19:21.724Z,97.90
2017-11-08T15:21:49.207Z,97.90
2017-11-08T15:24:16.715Z,97.90
2017-11-08T15:26:44.226Z,97.90
2017-11-08T15:29:11.764Z,97.90
2017-11-08T15:31:39.247Z,98.30
2017-11-08T15:34:06.736Z,97.90
2017-11-08T15:36:34.284Z,98.00
2017-11-08T15:39:02.653Z,98.00
2017-11-08T15:41:30.944Z,98.00
2017-11-08T15:43:58.543Z,97.90
2017-11-08T15:46:31.915Z,98.00
2017-11-08T15:49:14.285Z,98.00
2017-11-08T15:51:42.522Z,98.00
2017-11-08T15:54:10.004Z,98.00
2017-11-08T15:56:37.571Z,98.00
2017-11-08T15:59:06.576Z,98.40
2017-11-08T16:01:36.787Z,98.00
2017-11-08T16:04:12.527Z,98.00
2017-11-08T16:06:40.026Z,98.00
2017-11-08T16:09:09.374Z,98.00
2017-11-08T16:11:36.876Z,98.00
2017-11-08T16:14:04.509Z,98.10
2017-11-08T16:16:32.864Z,98.10
2017-11-08T16:19:03.262Z,98.10
2017-11-08T16:21:30.793Z,98.10
2017-11-08T16:23:59.125Z,98.10
2017-11-08T16:26:26.696Z,98.10
2017-11-08T16:28:54.178Z,98.10
2017-11-08T16:31:22.436Z,98.10
2017-11-08T16:33:50.708Z,98.20
2017-11-08T16:36:18.211Z,98.10
2017-11-08T16:38:45.726Z,98.10
2017-11-08T16:41:13.399Z,98.10
2017-11-08T16:43:42.734Z,98.10
2017-11-08T16:46:10.627Z,98.10
2017-11-08T16:48:38.394Z,98.10
2017-11-08T16:51:06.860Z,98.50
2017-11-08T16:53:34.337Z,98.10
2017-11-08T16:56:01.842Z,98.30
2017-11-08T16:58:29.341Z,98.40
2017-11-08T17:00:56.889Z,98.80
2017-11-08T17:03:24.390Z,98.70
2017-11-08T17:05:52.764Z,99.10
2017-11-08T17:08:20.464Z,99.10
2017-11-08T17:10:48.064Z,99.10
2017-11-08T17:13:15.572Z,99.00
2017-11-08T17:15:43.107Z,99.00
2017-11-08T17:18:11.384Z,98.70
2017-11-08T17:20:39.657Z,98.70
2017-11-08T17:23:08.105Z,98.60
2017-11-08T17:25:35.684Z,98.60
2017-11-08T17:28:03.309Z,98.60
2017-11-08T17:30:30.851Z,98.60
2017-11-08T17:32:58.353Z,98.50
2017-11-08T17:35:25.850Z,98.60
2017-11-08T17:37:53.487Z,98.50
2017-11-08T17:40:21.828Z,98.50
2017-11-08T17:42:49.424Z,98.50
2017-11-08T17:45:18.004Z,98.50
2017-11-08T17:47:45.652Z,98.50
2017-11-08T17:50:13.187Z,98.50
2017-11-08T17:52:40.700Z,98.50
2017-11-08T17:55:08.952Z,98.60
2017-11-08T17:57:36.527Z,98.50
2017-11-08T18:00:04.877Z,98.70
2017-11-08T18:02:32.547Z,98.70
2017-11-08T18:05:00.201Z,98.80
2017-11-08T18:07:27.766Z,98.80
2017-11-08T18:09:55.295Z,98.80
2017-11-08T18:12:22.775Z,98.80
2017-11-08T18:14:50.340Z,98.70
2017-11-08T18:17:18.162Z,98.70
2017-11-08T18:19:45.828Z,98.70
2017-11-08T18:22:13.467Z,98.60
2017-11-08T18:24:40.982Z,98.70
2017-11-08T18:27:08.856Z,98.70
2017-11-08T18:29:36.336Z,98.60
2017-11-08T18:32:04.592Z,98.70
2017-11-08T18:34:32.196Z,98.70
2017-11-08T18:36:59.749Z,99.00
2017-11-08T18:39:27.384Z,98.70
2017-11-08T18:41:55.741Z,98.70
2017-11-08T18:44:23.320Z,98.60
2017-11-08T18:46:50.808Z,98.60
2017-11-08T18:49:18.328Z,98.80
2017-11-08T18:51:46.589Z,98.70
2017-11-08T18:54:14.400Z,98.60
2017-11-08T18:56:41.973Z,98.60
2017-11-08T18:59:09.490Z,98.60
2017-11-08T19:01:37.749Z,98.60
2017-11-08T19:04:06.001Z,98.60
2017-11-08T19:06:33.491Z,98.60
2017-11-08T19:09:01.749Z,98.60
2017-11-08T19:11:29.639Z,98.60
2017-11-08T19:13:56.844Z,98.50
2017-11-08T19:16:24.402Z,98.50
2017-11-08T19:18:51.948Z,98.50
2017-11-08T19:21:19.710Z,98.50
2017-11-08T19:23:47.208Z,98.50
2017-11-08T19:26:14.929Z,98.50
2017-11-08T19:28:43.271Z,98.50
2017-11-08T19:31:10.883Z,98.50
2017-11-08T19:33:38.580Z,98.50
2017-11-08T19:36:07.125Z,98.60
2017-11-08T19:38:34.680Z,98.50
2017-11-08T19:41:03.251Z,98.50
2017-11-08T19:43:30.724Z,98.50
2017-11-08T19:45:58.288Z,98.50
2017-11-08T19:48:25.795Z,98.50
2017-11-08T19:50:53.432Z,98.50
2017-11-08T19:53:21.352Z,98.50
2017-11-08T19:55:48.872Z,98.50
2017-11-08T19:58:17.171Z,98.50
2017-11-08T20:00:44.667Z,98.50
2017-11-08T20:03:12.154Z,98.50
2017-11-08T20:05:40.419Z,98.50
2017-11-08T20:08:07.938Z,98.50
2017-11-08T20:10:35.597Z,98.50
2017-11-08T20:13:03.097Z,98.50
2017-11-08T20:15:30.586Z,98.50
2017-11-08T20:17:58.370Z,98.60
2017-11-08T20:20:26.328Z,98.40
2017-11-08T20:22:54.216Z,98.50
2017-11-08T20:25:21.922Z,98.50
2017-11-08T20:27:49.471Z,98.50
2017-11-08T20:30:17.750Z,98.80
2017-11-08T20:32:45.228Z,98.50
2017-11-08T20:35:12.735Z,98.50
2017-11-08T20:37:40.380Z,98.50
2017-11-08T20:40:08.199Z,98.50
2017-11-08T20:42:37.837Z,98.50
2017-11-08T20:45:05.558Z,98.50
2017-11-08T20:47:33.052Z,98.50
2017-11-08T20:50:00.657Z,98.50
2017-11-08T20:52:29.176Z,98.50
2017-11-08T20:54:56.685Z,98.50
2017-11-08T20:57:25.261Z,98.50
2017-11-08T20:59:52.756Z,98.40
2017-11-08T21:02:20.290Z,98.40
2017-11-08T21:04:47.921Z,98.40
2017-11-08T21:07:15.468Z,98.40
2017-11-08T21:09:42.980Z,98.40
2017-11-08T21:12:10.456Z,98.40
2017-11-08T21:14:38.740Z,98.40
2017-11-08T21:17:07.110Z,98.40
2017-11-08T21:19:35.540Z,98.40
2017-11-08T21:22:03.300Z,98.40
2017-11-08T21:24:30.845Z,98.40
2017-11-08T21:26:58.348Z,98.40
2017-11-08T21:29:25.836Z,98.40
2017-11-08T21:31:54.089Z,98.40
2017-11-08T21:34:21.588Z,98.40
2017-11-08T21:36:50.288Z,98.40
2017-11-08T21:39:17.784Z,98.40
2017-11-08T21:41:45.341Z,98.40
2017-11-08T21:44:12.855Z,98.40
2017-11-08T21:46:41.141Z,98.40
2017-11-08T21:49:08.635Z,98.40
2017-11-08T21:51:36.139Z,98.40
2017-11-08T21:54:03.624Z,98.40
2017-11-08T21:56:31.125Z,98.40
2017-11-08T21:58:59.540Z,98.40
2017-11-08T22:01:27.117Z,98.40
2017-11-08T22:03:54.596Z,98.40
2017-11-08T22:06:22.100Z,98.40
2017-11-08T22:08:49.598Z,98.40
2017-11-08T22:11:17.397Z,98.50
2017-11-08T22:13:45.757Z,98.40
2017-11-08T22:16:13.645Z,98.40
2017-11-08T22:18:41.529Z,98.40
2017-11-08T22:21:09.026Z,98.40
2017-11-08T22:23:37.308Z,98.50
2017-11-08T22:26:04.836Z,98.50
2017-11-08T22:28:32.335Z,98.50
2017-11-08T22:30:59.820Z,98.50
2017-11-08T22:33:27.312Z,98.50
2017-11-08T22:35:54.907Z,98.50
2017-11-08T22:38:25.195Z,98.50
2017-11-08T22:40:52.700Z,98.50
2017-11-08T22:43:21.048Z,98.50
2017-11-08T22:45:48.550Z,98.50
2017-11-08T22:48:16.031Z,98.50
2017-11-08T22:50:43.529Z,98.50
2017-11-08T22:53:11.077Z,98.50
2017-11-08T22:55:38.679Z,98.50
2017-11-08T22:58:07.035Z,98.50
2017-11-08T23:00:34.580Z,98.50
2017-11-08T23:03:02.059Z,98.50
2017-11-08T23:05:30.325Z,98.50
2017-11-08T23:07:57.830Z,98.50
2017-11-08T23:10:25.392Z,98.50
2017-11-08T23:12:53.039Z,98.50
2017-11-08T23:15:20.890Z,98.50
2017-11-08T23:17:49.213Z,98.60
2017-11-08T23:20:16.719Z,98.50
2017-11-08T23:22:44.806Z,98.50
2017-11-08T23:25:12.288Z,98.60
2017-11-08T23:27:39.790Z,98.60
2017-11-08T23:30:07.275Z,98.60
2017-11-08T23:32:35.255Z,98.60
2017-11-08T23:35:03.526Z,98.60
2017-11-08T23:37:31.025Z,98.60
2017-11-08T23:39:58.508Z,98.60
2017-11-08T23:42:26.018Z,98.60
2017-11-08T23:44:53.535Z,98.60
2017-11-08T23:47:21.860Z,98.60
2017-11-08T23:49:49.428Z,98.60
2017-11-08T23:52:16.971Z,98.60
2017-11-08T23:54:47.332Z,98.60
2017-11-08T23:57:18.718Z,98.60
2017-11-08T23:59:49.666Z,98.60
